This is the latest recevied weather packets stored in our database for station/object DL5DI-H. If no packets are shown the sender has not sent any weather packets the latest 10 day(s).
| Time | Temp. | Humidity | Pressure | Rain* | Wind** | Luminosity | Snow |
|---|---|---|---|---|---|---|---|
| 1777520404 | 7.78° C | 48% | 1028.9 hPa | 0 mm | - | - | - |
| 1777519800 | 7.78° C | 48% | 1028.9 hPa | 0 mm | - | - | - |
| 1777519201 | 7.78° C | 48% | 1028.9 hPa | 0 mm | - | - | - |
| 1777518601 | 7.78° C | 48% | 1028.9 hPa | 0 mm | - | - | - |
| 1777518005 | 7.78° C | 48% | 1028.9 hPa | 0 mm | - | - | - |
| 1777517404 | 7.78° C | 48% | 1028.8 hPa | 0 mm | - | - | - |
| 1777516805 | 8.33° C | 48% | 1028.8 hPa | 0 mm | - | - | - |
| 1777516201 | 8.33° C | 48% | 1028.8 hPa | 0 mm | - | - | - |
| 1777515600 | 8.33° C | 48% | 1028.8 hPa | 0 mm | - | - | - |
| 1777515005 | 8.33° C | 47% | 1028.7 hPa | 0 mm | - | - | - |
| 1777514401 | 8.33° C | 47% | 1028.7 hPa | 0 mm | - | - | - |
| 1777513805 | 8.33° C | 47% | 1028.7 hPa | 0 mm | - | - | - |
| 1777512005 | 9.44° C | 47% | 1028.7 hPa | 0 mm | - | - | - |
| 1777511401 | 9.44° C | 47% | 1028.7 hPa | 0 mm | - | - | - |
| 1777510805 | 9.44° C | 47% | 1028.7 hPa | 0 mm | - | - | - |
| 1777510205 | 9.44° C | 46% | 1028.5 hPa | 0 mm | - | - | - |
| 1777508405 | 9.44° C | 46% | 1028.4 hPa | 0 mm | - | - | - |
| 1777505401 | 11.11° C | 43% | 1028.1 hPa | 0 mm | - | - | - |
| 1777497601 | 13.33° C | 37% | 1027.2 hPa | 0 mm | - | - | - |
| 1777490401 | 16.11° C | 33% | 1025.5 hPa | 0 mm | - | - | - |
| 1777486200 | 18.33° C | 30% | 1024.9 hPa | 0 mm | - | - | - |
| 1777482601 | 21.11° C | 27% | 1024.5 hPa | 0 mm | - | - | - |
| 1777471201 | 21.67° C | 28% | 1024.7 hPa | 0 mm | - | - | - |
| 1777470001 | 20.56° C | 31% | 1024.8 hPa | 0 mm | - | - | - |
| 1777468805 | 20.56° C | 31% | 1024.8 hPa | 0 mm | - | - | - |
* Rain latest hour (hover to see other rain measurements)
** Current wind speed in m/s (hover to see current wind gust speed)